Time;durP1;ratioP1;P1;durP2;ratioP2;P2;SDS_P1;SDS_P2;PMS_P1;PMS_P2;Temp;Humidity;BMP_temperature;BMP_pressure;BME280_temperature;BME280_humidity;BME280_pressure;Samples;Min_cycle;Max_cycle;Signal;HPM_P1;HPM_P2
2021/10/09 00:00:00;;;;;;;;;;;;;;;;;;5031356;28;19935;-62
2021/10/09 00:02:27;;;;;;;;;;;;;;;;;;5032460;28;19925;-61
2021/10/09 00:04:54;;;;;;;;;;;;;;;;;;5029469;28;19971;-61
2021/10/09 00:07:21;;;;;;;;;;;;;;;;;;5023791;28;19932;-62
2021/10/09 00:09:52;;;;;;;;;;;;;;;;;;5025727;28;20019;-62
2021/10/09 00:12:19;;;;;;;;;;;;;;;;;;5033171;28;19925;-63
2021/10/09 00:14:46;;;;;;;;;;;;;;;;;;5027594;28;19986;-62
2021/10/09 00:17:15;;;;;;;;;;;;;;;;;;5030736;28;19929;-62
2021/10/09 00:19:42;;;;;;;;;;;;;;;;;;5022441;28;19932;-61
2021/10/09 00:22:09;;;;;;;;;;;;;;;;;;5024421;28;19933;-61
2021/10/09 00:24:36;;;;;;;;;;;;;;;;;;5028143;28;20313;-60
2021/10/09 00:27:03;;;;;;;;;;;;;;;;;;5032596;28;20399;-63
2021/10/09 00:29:30;;;;;;;;;;;;;;;;;;5034429;28;19929;-63
2021/10/09 00:31:57;;;;;;;;;;;;;;;;;;5029439;28;19931;-63
2021/10/09 00:34:24;;;;;;;;;;;;;;;;;;5025671;28;19925;-63
2021/10/09 00:36:51;;;;;;;;;;;;;;;;;;5029675;28;20404;-63
2021/10/09 00:39:18;;;;;;;;;;;;;;;;;;5029312;28;19925;-63
2021/10/09 00:41:45;;;;;;;;;;;;;;;;;;5026878;28;19932;-63
2021/10/09 00:44:12;;;;;;;;;;;;;;;;;;5031381;28;20393;-63
2021/10/09 00:46:39;;;;;;;;;;;;;;;;;;5025816;28;19925;-63
2021/10/09 00:49:06;;;;;;;;;;;;;;;;;;5029339;28;19925;-63
2021/10/09 00:51:33;;;;;;;;;;;;;;;;;;5028156;28;19925;-63
2021/10/09 00:54:00;;;;;;;;;;;;;;;;;;5023310;28;19929;-61
2021/10/09 00:56:27;;;;;;;;;;;;;;;;;;5031637;28;19947;-61
2021/10/09 00:58:53;;;;;;;;;;;;;;;;;;5025584;28;19933;-60
2021/10/09 01:01:20;;;;;;;;;;;;;;;;;;5027167;28;19925;-60
2021/10/09 01:03:48;;;;;;;;;;;;;;;;;;5025712;28;19933;-61
2021/10/09 01:06:15;;;;;;;;;;;;;;;;;;5028357;28;19930;-62
2021/10/09 01:08:42;;;;;;;;;;;;;;;;;;5030612;28;19932;-63
2021/10/09 01:11:09;;;;;;;;;;;;;;;;;;5034812;28;19925;-63
2021/10/09 01:13:36;;;;;;;;;;;;;;;;;;5035935;28;20284;-63
2021/10/09 01:16:03;;;;;;;;;;;;;;;;;;5025545;28;19925;-63
2021/10/09 01:18:30;;;;;;;;;;;;;;;;;;5032429;28;19933;-63
2021/10/09 01:20:58;;;;;;;;;;;;;;;;;;5029189;28;19935;-62
2021/10/09 01:23:25;;;;;;;;;;;;;;;;;;5027639;28;19933;-63
2021/10/09 01:25:52;;;;;;;;;;;;;;;;;;5031404;28;19925;-63
2021/10/09 01:28:19;;;;;;;;;;;;;;;;;;5030345;28;19932;-62
2021/10/09 01:30:46;;;;;;;;;;;;;;;;;;5029262;28;19925;-63
2021/10/09 01:33:13;;;;;;;;;;;;;;;;;;5032211;28;20403;-63
2021/10/09 01:35:40;;;;;;;;;;;;;;;;;;5023880;28;19940;-62
2021/10/09 01:38:07;;;;;;;;;;;;;;;;;;5032300;28;19931;-63
2021/10/09 01:40:34;;;;;;;;;;;;;;;;;;5026392;28;19933;-63
2021/10/09 01:43:01;;;;;;;;;;;;;;;;;;5027709;28;19933;-61
2021/10/09 01:45:27;;;;;;;;;;;;;;;;;;5020688;28;19948;-60
2021/10/09 01:47:54;;;;;;;;;;;;;;;;;;5028170;28;20413;-61
2021/10/09 01:50:21;;;;;;;;;;;;;;;;;;5025277;28;19925;-63
2021/10/09 01:52:48;;;;;;;;;;;;;;;;;;5027581;28;19925;-62
2021/10/09 01:55:15;;;;;;;;;;;;;;;;;;5031656;28;19941;-62
2021/10/09 01:57:42;;;;;;;;;;;;;;;;;;5032746;28;19929;-63
2021/10/09 02:00:09;;;;;;;;;;;;;;;;;;5035205;28;19947;-60
2021/10/09 02:02:36;;;;;;;;;;;;;;;;;;5032683;28;19925;-60
2021/10/09 02:05:03;;;;;;;;;;;;;;;;;;5033433;28;19937;-61
2021/10/09 02:07:31;;;;;;;;;;;;;;;;;;5031287;28;20312;-61
2021/10/09 02:09:58;;;;;;;;;;;;;;;;;;5034498;28;19933;-62
2021/10/09 02:12:26;;;;;;;;;;;;;;;;;;5036406;28;19939;-62
2021/10/09 02:14:57;;;;;;;;;;;;;;;;;;5035141;28;19929;-65
2021/10/09 02:17:47;;;;;;;;;;;;;;;;;;5029300;28;20028;-62
2021/10/09 02:25:46;;;;;;;;;;;;;;;;;;5035835;28;19996;-61
2021/10/09 02:28:13;;;;;;;;;;;;;;;;;;5030632;28;19929;-60
2021/10/09 02:30:40;;;;;;;;;;;;;;;;;;5031071;28;19936;-61
2021/10/09 02:33:07;;;;;;;;;;;;;;;;;;5029919;28;19944;-62
2021/10/09 02:35:34;;;;;;;;;;;;;;;;;;5033913;28;20401;-61
2021/10/09 02:38:01;;;;;;;;;;;;;;;;;;5032969;28;19999;-62
2021/10/09 02:40:28;;;;;;;;;;;;;;;;;;5033048;28;19929;-61
2021/10/09 02:42:55;;;;;;;;;;;;;;;;;;5027958;28;19931;-63
2021/10/09 02:45:22;;;;;;;;;;;;;;;;;;5030627;28;20412;-63
2021/10/09 02:47:49;;;;;;;;;;;;;;;;;;5032328;28;19929;-63
2021/10/09 02:50:17;;;;;;;;;;;;;;;;;;5023385;28;19925;-63
2021/10/09 02:52:44;;;;;;;;;;;;;;;;;;5033124;28;20009;-62
2021/10/09 02:55:13;;;;;;;;;;;;;;;;;;5030504;28;20416;-63
2021/10/09 02:57:40;;;;;;;;;;;;;;;;;;5034553;28;19968;-62
2021/10/09 03:00:07;;;;;;;;;;;;;;;;;;5033234;28;19945;-62
2021/10/09 03:02:34;;;;;;;;;;;;;;;;;;5030645;28;20407;-62
2021/10/09 03:05:01;;;;;;;;;;;;;;;;;;5035132;28;19955;-62
2021/10/09 03:07:28;;;;;;;;;;;;;;;;;;5025463;28;19952;-62
2021/10/09 03:09:55;;;;;;;;;;;;;;;;;;5031314;28;19932;-62
2021/10/09 03:12:22;;;;;;;;;;;;;;;;;;5030670;28;19932;-63
2021/10/09 03:14:49;;;;;;;;;;;;;;;;;;5033632;28;19935;-61
2021/10/09 03:17:16;;;;;;;;;;;;;;;;;;5031850;28;19925;-61
2021/10/09 03:19:43;;;;;;;;;;;;;;;;;;5034455;28;19932;-61
2021/10/09 03:22:10;;;;;;;;;;;;;;;;;;5035917;28;19929;-61
2021/10/09 03:24:37;;;;;;;;;;;;;;;;;;5033366;28;19929;-63
2021/10/09 03:27:04;;;;;;;;;;;;;;;;;;5033219;28;19925;-62
2021/10/09 03:29:31;;;;;;;;;;;;;;;;;;5030322;28;19929;-62
2021/10/09 03:31:57;;;;;;;;;;;;;;;;;;5038831;28;19950;-61
2021/10/09 03:34:24;;;;;;;;;;;;;;;;;;5031041;28;19925;-62
2021/10/09 03:36:51;;;;;;;;;;;;;;;;;;5034165;28;20317;-62
2021/10/09 03:39:20;;;;;;;;;;;;;;;;;;5030241;28;20424;-62
2021/10/09 03:41:51;;;;;;;;;;;;;;;;;;5025169;28;19971;-62
2021/10/09 03:44:18;;;;;;;;;;;;;;;;;;5061120;22;19925;-67
2021/10/09 03:46:55;;;;;;;;;;;;;;;;;;5051679;28;19968;-67
2021/10/09 03:49:25;;;;;;;;;;;;;;;;;;5053773;28;19987;-68
2021/10/09 03:54:36;;;;;;;;;;;;;;;;;;5052968;28;19959;-68
2021/10/09 03:57:03;;;;;;;;;;;;;;;;;;5045052;28;19925;-67
2021/10/09 03:59:30;;;;;;;;;;;;;;;;;;5048268;28;20003;-67
2021/10/09 04:01:57;;;;;;;;;;;;;;;;;;5048656;28;19925;-67
2021/10/09 04:04:27;;;;;;;;;;;;;;;;;;5049977;28;20313;-67
2021/10/09 04:06:54;;;;;;;;;;;;;;;;;;5049074;28;20059;-68
2021/10/09 04:09:21;;;;;;;;;;;;;;;;;;5045889;28;20238;-67
2021/10/09 04:11:48;;;;;;;;;;;;;;;;;;5044557;28;19925;-67
2021/10/09 04:14:15;;;;;;;;;;;;;;;;;;5043914;28;20376;-67
2021/10/09 04:16:42;;;;;;;;;;;;;;;;;;5043404;28;19929;-67
2021/10/09 04:19:09;;;;;;;;;;;;;;;;;;5045426;28;19932;-68
2021/10/09 04:21:36;;;;;;;;;;;;;;;;;;5048788;28;20015;-68
2021/10/09 04:24:03;;;;;;;;;;;;;;;;;;5043922;28;20019;-67
2021/10/09 04:26:30;;;;;;;;;;;;;;;;;;5046069;28;19925;-67
2021/10/09 04:28:57;;;;;;;;;;;;;;;;;;5044196;28;19925;-67
2021/10/09 04:31:24;;;;;;;;;;;;;;;;;;5046502;28;20400;-68
2021/10/09 04:33:51;;;;;;;;;;;;;;;;;;5050861;28;19925;-67
2021/10/09 04:36:18;;;;;;;;;;;;;;;;;;5046925;28;19948;-67
2021/10/09 04:38:45;;;;;;;;;;;;;;;;;;5047957;28;19935;-68
2021/10/09 04:41:12;;;;;;;;;;;;;;;;;;5050180;28;19933;-68
2021/10/09 04:43:39;;;;;;;;;;;;;;;;;;5052698;28;19924;-68
2021/10/09 04:46:06;;;;;;;;;;;;;;;;;;5045486;28;19931;-67
2021/10/09 04:48:32;;;;;;;;;;;;;;;;;;5044528;28;19924;-68
2021/10/09 04:50:59;;;;;;;;;;;;;;;;;;5049620;28;19936;-67
2021/10/09 04:53:26;;;;;;;;;;;;;;;;;;5045201;28;19931;-67
2021/10/09 04:55:53;;;;;;;;;;;;;;;;;;5045152;28;19929;-67
2021/10/09 04:58:20;;;;;;;;;;;;;;;;;;5043770;28;20020;-68
2021/10/09 05:00:48;;;;;;;;;;;;;;;;;;5057142;28;19984;-68
2021/10/09 05:03:15;;;;;;;;;;;;;;;;;;5058035;28;19928;-68
2021/10/09 05:05:43;;;;;;;;;;;;;;;;;;5048157;28;20368;-68
2021/10/09 05:08:10;;;;;;;;;;;;;;;;;;5046287;28;19931;-67
2021/10/09 05:10:37;;;;;;;;;;;;;;;;;;5048452;28;19925;-68
2021/10/09 05:13:04;;;;;;;;;;;;;;;;;;5043934;28;19933;-67
2021/10/09 05:15:31;;;;;;;;;;;;;;;;;;5047091;28;19924;-68
2021/10/09 05:17:58;;;;;;;;;;;;;;;;;;5042936;28;19926;-68
2021/10/09 05:20:25;;;;;;;;;;;;;;;;;;5049327;28;20327;-68
2021/10/09 05:22:52;;;;;;;;;;;;;;;;;;5047490;28;20006;-68
2021/10/09 05:25:19;;;;;;;;;;;;;;;;;;5048230;28;19931;-67
2021/10/09 05:27:53;;;;;;;;;;;;;;;;;;5042617;28;20299;-67
2021/10/09 05:30:20;;;;;;;;;;;;;;;;;;5048216;28;19974;-67
2021/10/09 05:32:58;;;;;;;;;;;;;;;;;;5051970;28;20304;-67
2021/10/09 05:35:25;;;;;;;;;;;;;;;;;;5046150;28;19928;-68
2021/10/09 05:37:52;;;;;;;;;;;;;;;;;;5044973;28;19925;-68
2021/10/09 05:40:19;;;;;;;;;;;;;;;;;;5051002;28;20406;-67
2021/10/09 05:42:46;;;;;;;;;;;;;;;;;;5048762;28;19925;-67
2021/10/09 05:45:13;;;;;;;;;;;;;;;;;;5051302;28;20016;-67
2021/10/09 05:47:40;;;;;;;;;;;;;;;;;;5053068;28;19931;-67
2021/10/09 05:50:09;;;;;;;;;;;;;;;;;;5048793;28;20432;-66
2021/10/09 05:52:41;;;;;;;;;;;;;;;;;;5050105;28;20341;-66
2021/10/09 05:55:13;;;;;;;;;;;;;;;;;;5046320;28;20024;-67
2021/10/09 05:57:44;;;;;;;;;;;;;;;;;;5052547;28;19924;-67
2021/10/09 06:44:34;;;;;;;;;;;;;;;;;;5033222;28;20403;-67
2021/10/09 06:47:19;;;;;;;;;;;;;;;;;;5051152;28;20023;-67
2021/10/09 07:00:42;;;;;;;;;;;;;;;;;;5049928;28;20399;-68
2021/10/09 07:03:09;;;;;;;;;;;;;;;;;;5048339;28;19925;-67
2021/10/09 07:05:41;;;;;;;;;;;;;;;;;;5050299;28;20308;-68
2021/10/09 07:08:09;;;;;;;;;;;;;;;;;;5048173;28;19948;-68
2021/10/09 07:10:37;;;;;;;;;;;;;;;;;;5050454;28;20296;-68
2021/10/09 07:13:04;;;;;;;;;;;;;;;;;;5049335;28;19955;-68
2021/10/09 07:15:31;;;;;;;;;;;;;;;;;;5050880;28;19931;-67
2021/10/09 07:17:58;;;;;;;;;;;;;;;;;;5051519;28;19928;-65
2021/10/09 07:20:25;;;;;;;;;;;;;;;;;;5050863;28;20408;-68
2021/10/09 07:22:52;;;;;;;;;;;;;;;;;;5051921;28;19925;-68
2021/10/09 07:25:19;;;;;;;;;;;;;;;;;;5051280;28;19963;-68
2021/10/09 07:27:46;;;;;;;;;;;;;;;;;;5041321;28;19978;-67
2021/10/09 07:30:14;;;;;;;;;;;;;;;;;;5048345;28;20265;-68
2021/10/09 07:32:42;;;;;;;;;;;;;;;;;;5047588;28;19995;-68
2021/10/09 07:35:09;;;;;;;;;;;;;;;;;;5045255;28;19947;-68
2021/10/09 07:37:36;;;;;;;;;;;;;;;;;;5046714;28;19925;-68
2021/10/09 07:40:03;;;;;;;;;;;;;;;;;;5049341;28;19932;-67
2021/10/09 07:42:30;;;;;;;;;;;;;;;;;;5039666;28;19925;-67
2021/10/09 07:44:57;;;;;;;;;;;;;;;;;;5042030;28;19937;-67
2021/10/09 07:47:24;;;;;;;;;;;;;;;;;;5040951;28;20016;-67
2021/10/09 07:49:51;;;;;;;;;;;;;;;;;;5053188;28;19931;-67
2021/10/09 07:52:18;;;;;;;;;;;;;;;;;;5058650;28;19929;-67
2021/10/09 07:54:45;;;;;;;;;;;;;;;;;;5055652;28;20399;-65
2021/10/09 07:57:12;;;;;;;;;;;;;;;;;;5049463;28;19933;-67
2021/10/09 07:59:39;;;;;;;;;;;;;;;;;;5044874;28;20312;-67
2021/10/09 08:02:05;;;;;;;;;;;;;;;;;;5051466;28;19932;-67
2021/10/09 08:04:32;;;;;;;;;;;;;;;;;;5045427;28;19924;-68
2021/10/09 08:06:59;;;;;;;;;;;;;;;;;;5036836;28;19987;-67
2021/10/09 08:09:29;;;;;;;;;;;;;;;;;;5036364;28;19933;-67
2021/10/09 08:11:56;;;;;;;;;;;;;;;;;;5037019;28;20370;-67
2021/10/09 08:14:23;;;;;;;;;;;;;;;;;;5036860;28;19925;-66
2021/10/09 08:16:50;;;;;;;;;;;;;;;;;;5046517;28;19925;-67
2021/10/09 08:19:17;;;;;;;;;;;;;;;;;;5046693;28;19924;-67
2021/10/09 08:21:45;;;;;;;;;;;;;;;;;;5045802;28;19931;-67
2021/10/09 08:24:18;;;;;;;;;;;;;;;;;;5046469;28;20350;-65
2021/10/09 08:27:02;;;;;;;;;;;;;;;;;;5040863;28;19925;-67
2021/10/09 08:40:30;;;;;;;;;;;;;;;;;;5041475;28;19915;-65
2021/10/09 08:42:57;;;;;;;;;;;;;;;;;;5040989;28;20007;-65
2021/10/09 08:45:24;;;;;;;;;;;;;;;;;;5040316;28;20309;-66
2021/10/09 08:47:51;;;;;;;;;;;;;;;;;;5041672;28;19925;-65
2021/10/09 08:50:18;;;;;;;;;;;;;;;;;;5047583;28;20300;-65
2021/10/09 08:52:45;;;;;;;;;;;;;;;;;;5046419;28;20027;-65
2021/10/09 08:55:12;;;;;;;;;;;;;;;;;;5049027;28;19933;-65
2021/10/09 08:57:38;;;;;;;;;;;;;;;;;;5042821;28;20420;-66
2021/10/09 09:00:08;;;;;;;;;;;;;;;;;;5046432;28;19932;-66
2021/10/09 09:02:39;;;;;;;;;;;;;;;;;;5039206;28;19933;-66
2021/10/09 09:05:13;;;;;;;;;;;;;;;;;;5045331;28;19925;-66
2021/10/09 09:07:54;;;;;;;;;;;;;;;;;;5041898;28;19924;-66
2021/10/09 09:27:16;;;;;;;;;;;;;;;;;;5031191;28;19998;-66
2021/10/09 09:32:41;;;;;;;;;;;;;;;;;;5042517;28;19924;-66
2021/10/09 09:40:37;;;;;;;;;;;;;;;;;;5043674;28;19920;-66
2021/10/09 09:43:04;;;;;;;;;;;;;;;;;;5056664;22;19939;-63
2021/10/09 09:45:31;;;;;;;;;;;;;;;;;;5048432;28;20375;-63
2021/10/09 09:47:59;;;;;;;;;;;;;;;;;;5048764;28;20429;-63
2021/10/09 09:50:26;;;;;;;;;;;;;;;;;;5048142;28;19933;-63
2021/10/09 09:52:53;;;;;;;;;;;;;;;;;;5045613;28;20281;-63
2021/10/09 09:55:20;;;;;;;;;;;;;;;;;;5030468;28;19931;-62
2021/10/09 09:57:47;;;;;;;;;;;;;;;;;;5034091;28;19925;-63
2021/10/09 10:00:14;;;;;;;;;;;;;;;;;;5029366;28;19925;-63
2021/10/09 10:02:41;;;;;;;;;;;;;;;;;;5031905;28;19925;-63
2021/10/09 10:05:08;;;;;;;;;;;;;;;;;;5029480;28;19933;-62
2021/10/09 10:07:35;;;;;;;;;;;;;;;;;;5030726;28;19973;-62
2021/10/09 10:10:02;;;;;;;;;;;;;;;;;;5024587;28;19932;-62
2021/10/09 10:12:29;;;;;;;;;;;;;;;;;;5021997;28;20028;-62
2021/10/09 10:14:56;;;;;;;;;;;;;;;;;;5028484;28;20415;-62
2021/10/09 10:17:23;;;;;;;;;;;;;;;;;;5028008;28;19925;-62
2021/10/09 10:19:50;;;;;;;;;;;;;;;;;;5025929;28;19936;-62
2021/10/09 10:22:17;;;;;;;;;;;;;;;;;;5028877;28;19932;-61
2021/10/09 10:24:44;;;;;;;;;;;;;;;;;;5026867;28;20316;-62
2021/10/09 10:27:11;;;;;;;;;;;;;;;;;;5029916;28;19933;-62
2021/10/09 10:29:38;;;;;;;;;;;;;;;;;;5023987;28;19936;-62
2021/10/09 10:32:05;;;;;;;;;;;;;;;;;;5027747;28;19944;-62
2021/10/09 10:34:32;;;;;;;;;;;;;;;;;;5031390;28;19947;-62
2021/10/09 10:36:59;;;;;;;;;;;;;;;;;;5027818;28;20028;-61
2021/10/09 10:39:27;;;;;;;;;;;;;;;;;;5027334;28;19929;-62
2021/10/09 10:41:55;;;;;;;;;;;;;;;;;;5030324;28;19936;-62
2021/10/09 10:44:22;;;;;;;;;;;;;;;;;;5028189;28;20016;-61
2021/10/09 10:46:54;;;;;;;;;;;;;;;;;;5024796;28;20606;-61
2021/10/09 10:49:25;;;;;;;;;;;;;;;;;;5021911;28;19933;-61
2021/10/09 10:51:56;;;;;;;;;;;;;;;;;;5027811;28;19956;-61
2021/10/09 10:54:33;;;;;;;;;;;;;;;;;;5033482;28;20163;-62
2021/10/09 10:57:01;;;;;;;;;;;;;;;;;;5032082;28;20262;-62
2021/10/09 10:59:28;;;;;;;;;;;;;;;;;;5032899;28;20042;-61
2021/10/09 11:01:55;;;;;;;;;;;;;;;;;;5032025;28;19932;-62
2021/10/09 11:04:22;;;;;;;;;;;;;;;;;;5028575;28;19931;-62
2021/10/09 11:06:49;;;;;;;;;;;;;;;;;;5031066;28;20296;-61
2021/10/09 11:09:16;;;;;;;;;;;;;;;;;;5032682;28;20604;-62
2021/10/09 11:11:43;;;;;;;;;;;;;;;;;;5032898;28;19925;-62
2021/10/09 11:14:10;;;;;;;;;;;;;;;;;;5033905;28;19925;-61
2021/10/09 11:16:37;;;;;;;;;;;;;;;;;;5031869;28;19932;-62
2021/10/09 11:19:04;;;;;;;;;;;;;;;;;;5033921;28;19925;-61
2021/10/09 11:21:31;;;;;;;;;;;;;;;;;;5034028;28;19932;-62
2021/10/09 11:23:59;;;;;;;;;;;;;;;;;;5033249;28;19935;-61
2021/10/09 11:26:27;;;;;;;;;;;;;;;;;;5032803;28;19936;-61
2021/10/09 11:28:54;;;;;;;;;;;;;;;;;;5030522;28;20415;-61
2021/10/09 11:31:20;;;;;;;;;;;;;;;;;;5027524;28;19939;-62
2021/10/09 11:33:47;;;;;;;;;;;;;;;;;;5037201;28;19925;-62
2021/10/09 11:36:14;;;;;;;;;;;;;;;;;;5031998;28;19925;-61
2021/10/09 11:38:41;;;;;;;;;;;;;;;;;;5032499;28;19979;-61
2021/10/09 11:41:10;;;;;;;;;;;;;;;;;;5030877;28;20939;-61
2021/10/09 11:43:45;;;;;;;;;;;;;;;;;;5031323;28;19925;-61
2021/10/09 11:46:18;;;;;;;;;;;;;;;;;;5032106;28;20333;-61
2021/10/09 11:54:26;;;;;;;;;;;;;;;;;;5032209;28;19960;-63
2021/10/09 11:56:53;;;;;;;;;;;;;;;;;;5028387;28;19925;-62
2021/10/09 11:59:22;;;;;;;;;;;;;;;;;;5032166;28;19925;-62
2021/10/09 12:01:51;;;;;;;;;;;;;;;;;;5033215;28;19931;-62
2021/10/09 12:04:18;;;;;;;;;;;;;;;;;;5032301;28;20153;-63
2021/10/09 12:06:45;;;;;;;;;;;;;;;;;;5031898;28;20204;-62
2021/10/09 12:09:14;;;;;;;;;;;;;;;;;;5031904;28;19925;-62
2021/10/09 12:11:41;;;;;;;;;;;;;;;;;;5032980;28;19983;-62
2021/10/09 12:14:09;;;;;;;;;;;;;;;;;;5031974;28;19932;-62
2021/10/09 12:16:36;;;;;;;;;;;;;;;;;;5037478;28;19936;-62
2021/10/09 12:19:03;;;;;;;;;;;;;;;;;;5031720;28;19932;-62
2021/10/09 12:21:30;;;;;;;;;;;;;;;;;;5031326;28;19936;-62
2021/10/09 12:23:57;;;;;;;;;;;;;;;;;;5031793;28;20304;-62
2021/10/09 12:26:24;;;;;;;;;;;;;;;;;;5031683;28;20055;-62
2021/10/09 12:28:51;;;;;;;;;;;;;;;;;;5034888;28;19967;-62
2021/10/09 12:31:18;;;;;;;;;;;;;;;;;;5031667;28;20373;-62
2021/10/09 12:33:45;;;;;;;;;;;;;;;;;;5031618;28;20400;-62
2021/10/09 12:36:12;;;;;;;;;;;;;;;;;;5029433;28;19952;-63
2021/10/09 12:38:39;;;;;;;;;;;;;;;;;;5031306;28;19925;-62
2021/10/09 12:41:06;;;;;;;;;;;;;;;;;;5031354;28;19957;-62
2021/10/09 12:43:33;;;;;;;;;;;;;;;;;;5030329;28;19931;-62
2021/10/09 12:46:00;;;;;;;;;;;;;;;;;;5030476;28;19948;-62
2021/10/09 12:48:27;;;;;;;;;;;;;;;;;;5035133;28;19937;-62
2021/10/09 12:50:54;;;;;;;;;;;;;;;;;;5025979;28;19931;-61
2021/10/09 12:53:21;;;;;;;;;;;;;;;;;;5032645;28;19933;-62
2021/10/09 12:55:48;;;;;;;;;;;;;;;;;;5031378;28;20319;-62
2021/10/09 12:58:15;;;;;;;;;;;;;;;;;;5030983;28;19925;-61
2021/10/09 13:00:42;;;;;;;;;;;;;;;;;;5030910;28;19932;-61
2021/10/09 13:03:09;;;;;;;;;;;;;;;;;;5031240;28;19999;-63
2021/10/09 13:05:36;;;;;;;;;;;;;;;;;;5031061;28;19948;-60
2021/10/09 13:08:05;;;;;;;;;;;;;;;;;;5029997;28;20305;-60
2021/10/09 13:10:34;;;;;;;;;;;;;;;;;;5030628;28;19968;-60
2021/10/09 13:13:01;;;;;;;;;;;;;;;;;;5031012;28;19931;-60
2021/10/09 13:15:27;;;;;;;;;;;;;;;;;;5031406;28;19925;-61
2021/10/09 13:17:54;;;;;;;;;;;;;;;;;;5029730;28;19932;-60
2021/10/09 13:20:25;;;;;;;;;;;;;;;;;;5031935;28;19932;-60
2021/10/09 13:22:52;;;;;;;;;;;;;;;;;;5030545;28;19929;-60
2021/10/09 13:25:18;;;;;;;;;;;;;;;;;;5029873;28;20274;-61
2021/10/09 13:27:45;;;;;;;;;;;;;;;;;;5031423;28;20430;-60
2021/10/09 13:30:12;;;;;;;;;;;;;;;;;;5031027;28;19925;-62
2021/10/09 13:32:39;;;;;;;;;;;;;;;;;;5030174;28;19925;-61
2021/10/09 13:35:06;;;;;;;;;;;;;;;;;;5023722;28;19933;-62
2021/10/09 13:37:38;;;;;;;;;;;;;;;;;;5031192;28;19931;-61
2021/10/09 13:40:04;;;;;;;;;;;;;;;;;;5033586;28;19929;-62
2021/10/09 13:42:31;;;;;;;;;;;;;;;;;;5031316;28;19925;-62
2021/10/09 13:44:58;;;;;;;;;;;;;;;;;;5030028;28;20399;-61
2021/10/09 13:47:25;;;;;;;;;;;;;;;;;;5022620;28;19925;-61
2021/10/09 13:49:52;;;;;;;;;;;;;;;;;;5029865;28;19937;-62
2021/10/09 13:52:19;;;;;;;;;;;;;;;;;;5030796;28;19932;-62
2021/10/09 13:54:46;;;;;;;;;;;;;;;;;;5030846;28;19936;-61
2021/10/09 13:57:13;;;;;;;;;;;;;;;;;;5030541;28;19948;-62
2021/10/09 13:59:40;;;;;;;;;;;;;;;;;;5029726;28;20392;-62
2021/10/09 14:02:07;;;;;;;;;;;;;;;;;;5026685;28;19934;-62
2021/10/09 14:04:38;;;;;;;;;;;;;;;;;;5027041;28;20003;-62
2021/10/09 14:07:05;;;;;;;;;;;;;;;;;;5030635;28;19932;-62
2021/10/09 14:09:32;;;;;;;;;;;;;;;;;;5030680;28;19947;-62
2021/10/09 14:12:00;;;;;;;;;;;;;;;;;;5030632;28;19931;-62
2021/10/09 14:14:27;;;;;;;;;;;;;;;;;;5029332;28;19956;-62
2021/10/09 14:16:55;;;;;;;;;;;;;;;;;;5030102;28;20008;-62
2021/10/09 14:19:22;;;;;;;;;;;;;;;;;;5031322;28;19932;-62
2021/10/09 14:21:49;;;;;;;;;;;;;;;;;;5033932;28;20292;-62
2021/10/09 14:24:16;;;;;;;;;;;;;;;;;;5034063;28;19925;-62
2021/10/09 14:26:43;;;;;;;;;;;;;;;;;;5035684;28;19925;-62
2021/10/09 14:29:10;;;;;;;;;;;;;;;;;;5035410;28;20393;-62
2021/10/09 14:31:36;;;;;;;;;;;;;;;;;;5031324;28;19935;-62
2021/10/09 14:34:03;;;;;;;;;;;;;;;;;;5035282;28;19944;-62
2021/10/09 14:36:30;;;;;;;;;;;;;;;;;;5033960;28;20305;-62
2021/10/09 14:38:57;;;;;;;;;;;;;;;;;;5033000;28;20420;-62
2021/10/09 14:41:24;;;;;;;;;;;;;;;;;;5033222;28;20015;-62
2021/10/09 14:43:51;;;;;;;;;;;;;;;;;;5033582;28;19929;-62
2021/10/09 14:49:04;;;;;;;;;;;;;;;;;;5031578;28;19972;-61
2021/10/09 14:51:38;;;;;;;;;;;;;;;;;;5033079;28;19929;-62
2021/10/09 15:18:52;;;;;;;;;;;;;;;;;;5027279;28;20016;-63
2021/10/09 15:21:19;;;;;;;;;;;;;;;;;;5032617;28;19925;-63
2021/10/09 15:23:46;;;;;;;;;;;;;;;;;;5027340;28;19929;-63
2021/10/09 15:26:13;;;;;;;;;;;;;;;;;;5026091;28;19925;-63
2021/10/09 15:28:40;;;;;;;;;;;;;;;;;;5026568;28;19933;-63
2021/10/09 15:31:11;;;;;;;;;;;;;;;;;;5026218;28;19929;-63
2021/10/09 15:33:38;;;;;;;;;;;;;;;;;;5028947;28;19972;-63
2021/10/09 15:36:05;;;;;;;;;;;;;;;;;;5025822;28;19932;-63
2021/10/09 15:38:32;;;;;;;;;;;;;;;;;;5023164;28;20015;-64
2021/10/09 15:40:59;;;;;;;;;;;;;;;;;;5027107;28;19931;-63
2021/10/09 15:43:26;;;;;;;;;;;;;;;;;;5048709;22;20020;-61
2021/10/09 15:45:53;;;;;;;;;;;;;;;;;;5053868;28;19932;-64
2021/10/09 15:48:21;;;;;;;;;;;;;;;;;;5048685;28;20300;-63
2021/10/09 15:50:48;;;;;;;;;;;;;;;;;;5053778;28;20439;-62
2021/10/09 15:53:16;;;;;;;;;;;;;;;;;;5052273;28;19943;-64
2021/10/09 15:55:43;;;;;;;;;;;;;;;;;;5049762;28;20019;-61
2021/10/09 15:58:10;;;;;;;;;;;;;;;;;;5055077;28;19925;-60
2021/10/09 16:00:37;;;;;;;;;;;;;;;;;;5052037;28;19925;-62
2021/10/09 16:03:04;;;;;;;;;;;;;;;;;;5054007;28;19931;-63
2021/10/09 16:05:31;;;;;;;;;;;;;;;;;;5056542;28;19925;-63
2021/10/09 16:07:58;;;;;;;;;;;;;;;;;;5053778;28;19931;-65
2021/10/09 16:10:25;;;;;;;;;;;;;;;;;;5052218;28;19925;-64
2021/10/09 16:12:52;;;;;;;;;;;;;;;;;;5049180;28;20289;-63
2021/10/09 16:15:19;;;;;;;;;;;;;;;;;;5052114;28;19925;-64
2021/10/09 16:17:46;;;;;;;;;;;;;;;;;;5048940;28;19925;-64
2021/10/09 16:20:13;;;;;;;;;;;;;;;;;;5043625;28;19932;-63
2021/10/09 16:22:42;;;;;;;;;;;;;;;;;;5046323;28;19987;-64
2021/10/09 16:25:09;;;;;;;;;;;;;;;;;;5046986;28;19929;-63
2021/10/09 16:27:36;;;;;;;;;;;;;;;;;;5048397;28;19968;-63
2021/10/09 16:30:03;;;;;;;;;;;;;;;;;;5048674;28;20296;-62
2021/10/09 16:32:30;;;;;;;;;;;;;;;;;;5050335;28;19931;-63
2021/10/09 16:34:57;;;;;;;;;;;;;;;;;;5049565;28;19929;-62
2021/10/09 16:37:24;;;;;;;;;;;;;;;;;;5052267;28;20023;-63
2021/10/09 16:39:51;;;;;;;;;;;;;;;;;;5049232;28;19943;-61
2021/10/09 16:42:18;;;;;;;;;;;;;;;;;;5051999;28;19925;-64
2021/10/09 16:44:45;;;;;;;;;;;;;;;;;;5050513;28;19925;-62
2021/10/09 16:47:12;;;;;;;;;;;;;;;;;;5050544;28;20403;-63
2021/10/09 16:49:39;;;;;;;;;;;;;;;;;;5053362;28;20380;-63
2021/10/09 16:52:06;;;;;;;;;;;;;;;;;;5054964;28;20007;-61
2021/10/09 16:54:33;;;;;;;;;;;;;;;;;;5054177;28;20019;-64
2021/10/09 16:57:00;;;;;;;;;;;;;;;;;;5053952;28;19924;-60
2021/10/09 16:59:27;;;;;;;;;;;;;;;;;;5050973;28;19937;-63
2021/10/09 17:01:54;;;;;;;;;;;;;;;;;;5054103;28;20020;-62
2021/10/09 17:04:21;;;;;;;;;;;;;;;;;;5052984;28;19992;-64
2021/10/09 17:06:48;;;;;;;;;;;;;;;;;;5055220;28;19932;-61
2021/10/09 17:09:15;;;;;;;;;;;;;;;;;;5055047;28;19948;-60
2021/10/09 17:11:42;;;;;;;;;;;;;;;;;;5050555;28;19991;-61
2021/10/09 17:14:09;;;;;;;;;;;;;;;;;;5050189;28;19981;-64
2021/10/09 17:16:36;;;;;;;;;;;;;;;;;;5051298;28;19956;-64
2021/10/09 17:19:05;;;;;;;;;;;;;;;;;;5054903;28;19960;-62
2021/10/09 17:21:32;;;;;;;;;;;;;;;;;;5050001;28;19933;-64
2021/10/09 17:23:59;;;;;;;;;;;;;;;;;;5054757;28;19931;-64
2021/10/09 17:26:26;;;;;;;;;;;;;;;;;;5051169;28;20308;-62
2021/10/09 17:28:53;;;;;;;;;;;;;;;;;;5051888;28;19972;-64
2021/10/09 17:31:20;;;;;;;;;;;;;;;;;;5050708;28;20364;-62
2021/10/09 17:33:47;;;;;;;;;;;;;;;;;;5053412;28;19925;-63
2021/10/09 17:36:14;;;;;;;;;;;;;;;;;;5049663;28;20019;-63
2021/10/09 17:38:41;;;;;;;;;;;;;;;;;;5051323;28;19924;-63
2021/10/09 17:41:08;;;;;;;;;;;;;;;;;;5053279;28;19929;-63
2021/10/09 17:43:35;;;;;;;;;;;;;;;;;;5053954;28;20019;-63
2021/10/09 17:46:03;;;;;;;;;;;;;;;;;;5052899;28;20001;-61
2021/10/09 17:48:30;;;;;;;;;;;;;;;;;;5052819;28;19931;-64
2021/10/09 17:50:58;;;;;;;;;;;;;;;;;;5053756;28;19931;-63
2021/10/09 17:53:27;;;;;;;;;;;;;;;;;;5057954;28;19935;-64
2021/10/09 17:55:54;;;;;;;;;;;;;;;;;;5056076;28;19979;-64
2021/10/09 17:58:21;;;;;;;;;;;;;;;;;;5060091;28;19960;-64
2021/10/09 18:00:48;;;;;;;;;;;;;;;;;;5057325;28;20508;-64
2021/10/09 18:03:15;;;;;;;;;;;;;;;;;;5049208;28;20002;-63
2021/10/09 18:05:42;;;;;;;;;;;;;;;;;;5058259;28;20015;-64
2021/10/09 18:08:09;;;;;;;;;;;;;;;;;;5057904;28;19931;-63
2021/10/09 18:10:36;;;;;;;;;;;;;;;;;;5058863;28;19929;-63
2021/10/09 18:13:03;;;;;;;;;;;;;;;;;;5049811;28;19960;-62
2021/10/09 18:15:31;;;;;;;;;;;;;;;;;;5053733;28;19925;-62
2021/10/09 18:17:58;;;;;;;;;;;;;;;;;;5054996;28;19925;-62
2021/10/09 18:20:25;;;;;;;;;;;;;;;;;;5054213;28;19925;-63
2021/10/09 18:22:52;;;;;;;;;;;;;;;;;;5052664;28;20316;-63
2021/10/09 18:25:19;;;;;;;;;;;;;;;;;;5056615;28;20396;-62
2021/10/09 18:27:46;;;;;;;;;;;;;;;;;;5052715;28;19925;-63
2021/10/09 18:30:13;;;;;;;;;;;;;;;;;;5056937;28;20036;-62
2021/10/09 18:32:40;;;;;;;;;;;;;;;;;;5049593;28;19932;-63
2021/10/09 18:35:07;;;;;;;;;;;;;;;;;;5055937;28;19982;-62
2021/10/09 18:37:34;;;;;;;;;;;;;;;;;;5048895;28;19932;-63
2021/10/09 18:40:02;;;;;;;;;;;;;;;;;;5053572;28;19924;-63
2021/10/09 18:42:29;;;;;;;;;;;;;;;;;;5051652;28;19980;-62
2021/10/09 18:44:56;;;;;;;;;;;;;;;;;;5053850;28;19935;-62
2021/10/09 18:47:23;;;;;;;;;;;;;;;;;;5056862;28;19929;-63
2021/10/09 18:49:50;;;;;;;;;;;;;;;;;;5052434;28;20024;-63
2021/10/09 18:52:17;;;;;;;;;;;;;;;;;;5049958;28;19924;-63
2021/10/09 18:54:44;;;;;;;;;;;;;;;;;;5054754;28;19936;-63
2021/10/09 18:57:12;;;;;;;;;;;;;;;;;;5049358;28;19939;-63
2021/10/09 18:59:39;;;;;;;;;;;;;;;;;;5049700;28;19968;-62